sensor_id;sensor_type;location;lat;lon;timestamp;P1;durP1;ratioP1;P2;durP2;ratioP2
44426;SDS011;30133;47.866;-4.222;2022-10-26T00:02:23;6.35;;;1.70;;
44426;SDS011;30133;47.866;-4.222;2022-10-26T00:04:52;5.72;;;1.58;;
44426;SDS011;30133;47.866;-4.222;2022-10-26T00:07:18;5.43;;;1.40;;
44426;SDS011;30133;47.866;-4.222;2022-10-26T00:09:45;4.25;;;1.20;;
44426;SDS011;30133;47.866;-4.222;2022-10-26T00:12:12;3.67;;;1.10;;
44426;SDS011;30133;47.866;-4.222;2022-10-26T00:14:42;4.93;;;1.52;;
44426;SDS011;30133;47.866;-4.222;2022-10-26T00:17:09;4.70;;;1.42;;
44426;SDS011;30133;47.866;-4.222;2022-10-26T00:19:36;3.92;;;1.40;;
44426;SDS011;30133;47.866;-4.222;2022-10-26T00:22:03;4.78;;;1.50;;
44426;SDS011;30133;47.866;-4.222;2022-10-26T00:24:31;5.07;;;1.98;;
44426;SDS011;30133;47.866;-4.222;2022-10-26T00:26:59;5.05;;;1.48;;
44426;SDS011;30133;47.866;-4.222;2022-10-26T00:29:27;4.70;;;1.27;;
44426;SDS011;30133;47.866;-4.222;2022-10-26T00:31:54;2.67;;;0.95;;
44426;SDS011;30133;47.866;-4.222;2022-10-26T00:34:23;5.55;;;1.40;;
44426;SDS011;30133;47.866;-4.222;2022-10-26T00:36:50;4.13;;;1.83;;
44426;SDS011;30133;47.866;-4.222;2022-10-26T00:39:18;2.70;;;1.25;;
44426;SDS011;30133;47.866;-4.222;2022-10-26T00:41:44;4.45;;;1.00;;
44426;SDS011;30133;47.866;-4.222;2022-10-26T00:47:28;5.38;;;1.63;;
44426;SDS011;30133;47.866;-4.222;2022-10-26T00:50:35;3.53;;;1.15;;
44426;SDS011;30133;47.866;-4.222;2022-10-26T00:53:08;3.95;;;1.50;;
44426;SDS011;30133;47.866;-4.222;2022-10-26T00:55:39;3.28;;;1.23;;
44426;SDS011;30133;47.866;-4.222;2022-10-26T00:58:10;3.25;;;1.33;;
44426;SDS011;30133;47.866;-4.222;2022-10-26T01:00:37;4.88;;;1.30;;
44426;SDS011;30133;47.866;-4.222;2022-10-26T01:03:07;4.35;;;1.48;;
44426;SDS011;30133;47.866;-4.222;2022-10-26T01:05:39;7.35;;;1.20;;
44426;SDS011;30133;47.866;-4.222;2022-10-26T01:08:08;1.83;;;0.88;;
44426;SDS011;30133;47.866;-4.222;2022-10-26T01:10:34;4.30;;;1.40;;
44426;SDS011;30133;47.866;-4.222;2022-10-26T01:13:04;4.68;;;1.65;;
44426;SDS011;30133;47.866;-4.222;2022-10-26T01:15:39;5.30;;;1.20;;
44426;SDS011;30133;47.866;-4.222;2022-10-26T01:36:11;3.55;;;1.25;;
44426;SDS011;30133;47.866;-4.222;2022-10-26T01:41:45;5.45;;;1.33;;
44426;SDS011;30133;47.866;-4.222;2022-10-26T01:44:25;1.92;;;1.20;;
44426;SDS011;30133;47.866;-4.222;2022-10-26T01:47:16;5.38;;;1.55;;
44426;SDS011;30133;47.866;-4.222;2022-10-26T01:49:49;3.55;;;1.50;;
44426;SDS011;30133;47.866;-4.222;2022-10-26T01:52:18;8.90;;;1.50;;
44426;SDS011;30133;47.866;-4.222;2022-10-26T01:54:45;5.00;;;1.40;;
44426;SDS011;30133;47.866;-4.222;2022-10-26T01:57:13;8.32;;;1.27;;
44426;SDS011;30133;47.866;-4.222;2022-10-26T02:02:47;4.28;;;1.75;;
44426;SDS011;30133;47.866;-4.222;2022-10-26T02:05:48;3.88;;;1.33;;
44426;SDS011;30133;47.866;-4.222;2022-10-26T02:14:01;3.97;;;0.88;;
44426;SDS011;30133;47.866;-4.222;2022-10-26T02:19:41;8.32;;;1.40;;
44426;SDS011;30133;47.866;-4.222;2022-10-26T02:22:32;4.40;;;1.42;;
44426;SDS011;30133;47.866;-4.222;2022-10-26T02:25:06;5.30;;;1.70;;
44426;SDS011;30133;47.866;-4.222;2022-10-26T02:27:38;3.42;;;1.27;;
44426;SDS011;30133;47.866;-4.222;2022-10-26T02:30:08;4.20;;;1.45;;
44426;SDS011;30133;47.866;-4.222;2022-10-26T02:32:37;6.78;;;1.45;;
44426;SDS011;30133;47.866;-4.222;2022-10-26T02:35:10;7.90;;;1.38;;
44426;SDS011;30133;47.866;-4.222;2022-10-26T02:37:39;2.22;;;1.08;;
44426;SDS011;30133;47.866;-4.222;2022-10-26T02:40:09;5.72;;;1.48;;
44426;SDS011;30133;47.866;-4.222;2022-10-26T02:42:42;5.05;;;2.20;;
44426;SDS011;30133;47.866;-4.222;2022-10-26T02:45:14;5.72;;;1.55;;
44426;SDS011;30133;47.866;-4.222;2022-10-26T02:47:49;3.08;;;1.33;;
44426;SDS011;30133;47.866;-4.222;2022-10-26T02:50:19;3.05;;;1.25;;
44426;SDS011;30133;47.866;-4.222;2022-10-26T02:55:32;3.38;;;1.55;;
44426;SDS011;30133;47.866;-4.222;2022-10-26T02:58:10;4.85;;;1.40;;
44426;SDS011;30133;47.866;-4.222;2022-10-26T03:00:43;5.07;;;1.42;;
44426;SDS011;30133;47.866;-4.222;2022-10-26T03:03:10;3.90;;;1.35;;
44426;SDS011;30133;47.866;-4.222;2022-10-26T03:05:40;6.25;;;1.67;;
44426;SDS011;30133;47.866;-4.222;2022-10-26T03:08:08;4.28;;;1.10;;
44426;SDS011;30133;47.866;-4.222;2022-10-26T03:10:38;2.47;;;1.10;;
44426;SDS011;30133;47.866;-4.222;2022-10-26T03:13:07;5.97;;;1.20;;
44426;SDS011;30133;47.866;-4.222;2022-10-26T03:15:35;2.75;;;1.13;;
44426;SDS011;30133;47.866;-4.222;2022-10-26T03:18:02;4.03;;;1.40;;
44426;SDS011;30133;47.866;-4.222;2022-10-26T03:20:29;4.50;;;1.10;;
44426;SDS011;30133;47.866;-4.222;2022-10-26T03:22:58;4.10;;;1.27;;
44426;SDS011;30133;47.866;-4.222;2022-10-26T03:25:25;1.17;;;0.70;;
44426;SDS011;30133;47.866;-4.222;2022-10-26T03:27:58;4.82;;;0.95;;
44426;SDS011;30133;47.866;-4.222;2022-10-26T03:30:27;5.45;;;1.50;;
44426;SDS011;30133;47.866;-4.222;2022-10-26T03:32:56;5.60;;;2.47;;
44426;SDS011;30133;47.866;-4.222;2022-10-26T03:35:24;5.43;;;1.45;;
44426;SDS011;30133;47.866;-4.222;2022-10-26T03:37:50;4.45;;;1.40;;
44426;SDS011;30133;47.866;-4.222;2022-10-26T03:40:17;8.75;;;2.22;;
44426;SDS011;30133;47.866;-4.222;2022-10-26T03:42:48;6.30;;;1.38;;
44426;SDS011;30133;47.866;-4.222;2022-10-26T03:45:14;5.47;;;1.35;;
44426;SDS011;30133;47.866;-4.222;2022-10-26T03:47:41;9.10;;;1.40;;
44426;SDS011;30133;47.866;-4.222;2022-10-26T03:50:11;5.25;;;1.40;;
44426;SDS011;30133;47.866;-4.222;2022-10-26T03:52:40;3.58;;;1.15;;
44426;SDS011;30133;47.866;-4.222;2022-10-26T03:55:08;6.25;;;2.00;;
44426;SDS011;30133;47.866;-4.222;2022-10-26T03:57:42;3.33;;;1.13;;
44426;SDS011;30133;47.866;-4.222;2022-10-26T04:00:10;4.63;;;1.23;;
44426;SDS011;30133;47.866;-4.222;2022-10-26T04:02:45;6.03;;;1.42;;
44426;SDS011;30133;47.866;-4.222;2022-10-26T04:05:22;6.70;;;1.55;;
44426;SDS011;30133;47.866;-4.222;2022-10-26T04:07:58;3.17;;;1.33;;
44426;SDS011;30133;47.866;-4.222;2022-10-26T04:10:29;2.70;;;1.10;;
44426;SDS011;30133;47.866;-4.222;2022-10-26T04:12:58;1.95;;;0.95;;
44426;SDS011;30133;47.866;-4.222;2022-10-26T04:15:28;5.70;;;1.17;;
44426;SDS011;30133;47.866;-4.222;2022-10-26T04:17:57;3.78;;;1.50;;
44426;SDS011;30133;47.866;-4.222;2022-10-26T04:20:26;3.03;;;1.02;;
44426;SDS011;30133;47.866;-4.222;2022-10-26T04:23:03;3.60;;;1.30;;
44426;SDS011;30133;47.866;-4.222;2022-10-26T04:25:31;2.97;;;1.05;;
44426;SDS011;30133;47.866;-4.222;2022-10-26T04:28:00;7.50;;;1.50;;
44426;SDS011;30133;47.866;-4.222;2022-10-26T04:30:31;4.53;;;1.23;;
44426;SDS011;30133;47.866;-4.222;2022-10-26T04:32:58;2.78;;;1.20;;
44426;SDS011;30133;47.866;-4.222;2022-10-26T04:35:25;2.92;;;1.05;;
44426;SDS011;30133;47.866;-4.222;2022-10-26T04:38:01;3.75;;;1.17;;
44426;SDS011;30133;47.866;-4.222;2022-10-26T04:40:31;3.70;;;1.00;;
44426;SDS011;30133;47.866;-4.222;2022-10-26T04:42:58;4.00;;;0.95;;
44426;SDS011;30133;47.866;-4.222;2022-10-26T04:45:24;4.18;;;1.13;;
44426;SDS011;30133;47.866;-4.222;2022-10-26T04:48:03;3.63;;;1.35;;
44426;SDS011;30133;47.866;-4.222;2022-10-26T04:50:36;2.90;;;1.10;;
44426;SDS011;30133;47.866;-4.222;2022-10-26T04:53:05;2.97;;;1.20;;
44426;SDS011;30133;47.866;-4.222;2022-10-26T04:55:32;4.07;;;1.10;;
44426;SDS011;30133;47.866;-4.222;2022-10-26T04:58:00;5.10;;;1.13;;
44426;SDS011;30133;47.866;-4.222;2022-10-26T05:00:27;6.05;;;1.60;;
44426;SDS011;30133;47.866;-4.222;2022-10-26T05:02:58;6.10;;;1.33;;
44426;SDS011;30133;47.866;-4.222;2022-10-26T05:05:31;2.30;;;0.82;;
44426;SDS011;30133;47.866;-4.222;2022-10-26T05:07:59;4.65;;;1.05;;
44426;SDS011;30133;47.866;-4.222;2022-10-26T05:10:25;3.92;;;1.10;;
44426;SDS011;30133;47.866;-4.222;2022-10-26T05:12:52;4.90;;;1.05;;
44426;SDS011;30133;47.866;-4.222;2022-10-26T05:15:20;5.18;;;1.33;;
44426;SDS011;30133;47.866;-4.222;2022-10-26T05:17:46;5.10;;;1.13;;
44426;SDS011;30133;47.866;-4.222;2022-10-26T05:20:29;5.95;;;1.00;;
44426;SDS011;30133;47.866;-4.222;2022-10-26T05:22:59;3.40;;;1.00;;
44426;SDS011;30133;47.866;-4.222;2022-10-26T05:25:47;4.38;;;1.15;;
44426;SDS011;30133;47.866;-4.222;2022-10-26T05:28:14;5.35;;;1.42;;
44426;SDS011;30133;47.866;-4.222;2022-10-26T05:30:43;5.10;;;1.65;;
44426;SDS011;30133;47.866;-4.222;2022-10-26T05:33:10;9.27;;;1.30;;
44426;SDS011;30133;47.866;-4.222;2022-10-26T05:35:38;5.20;;;0.93;;
44426;SDS011;30133;47.866;-4.222;2022-10-26T05:38:05;2.35;;;1.02;;
44426;SDS011;30133;47.866;-4.222;2022-10-26T05:40:48;3.85;;;1.83;;
44426;SDS011;30133;47.866;-4.222;2022-10-26T05:43:23;4.25;;;1.00;;
44426;SDS011;30133;47.866;-4.222;2022-10-26T05:45:50;5.53;;;1.30;;
44426;SDS011;30133;47.866;-4.222;2022-10-26T05:48:18;3.53;;;1.38;;
44426;SDS011;30133;47.866;-4.222;2022-10-26T05:50:45;6.30;;;1.83;;
44426;SDS011;30133;47.866;-4.222;2022-10-26T05:53:11;6.32;;;1.50;;
44426;SDS011;30133;47.866;-4.222;2022-10-26T05:55:38;1.58;;;0.73;;
44426;SDS011;30133;47.866;-4.222;2022-10-26T05:58:11;4.50;;;1.65;;
44426;SDS011;30133;47.866;-4.222;2022-10-26T06:00:50;5.72;;;1.00;;
44426;SDS011;30133;47.866;-4.222;2022-10-26T06:04:14;3.15;;;1.13;;
44426;SDS011;30133;47.866;-4.222;2022-10-26T06:06:20;7.07;;;1.90;;
44426;SDS011;30133;47.866;-4.222;2022-10-26T06:08:47;3.80;;;0.93;;
44426;SDS011;30133;47.866;-4.222;2022-10-26T06:11:14;3.88;;;1.75;;
44426;SDS011;30133;47.866;-4.222;2022-10-26T06:13:41;3.53;;;1.42;;
44426;SDS011;30133;47.866;-4.222;2022-10-26T06:20:00;3.90;;;1.42;;
44426;SDS011;30133;47.866;-4.222;2022-10-26T06:28:33;3.22;;;1.13;;
44426;SDS011;30133;47.866;-4.222;2022-10-26T06:31:11;3.28;;;0.98;;
44426;SDS011;30133;47.866;-4.222;2022-10-26T06:33:39;3.10;;;1.20;;
44426;SDS011;30133;47.866;-4.222;2022-10-26T06:36:20;4.10;;;1.10;;
44426;SDS011;30133;47.866;-4.222;2022-10-26T06:39:02;5.05;;;0.95;;
44426;SDS011;30133;47.866;-4.222;2022-10-26T06:41:36;5.47;;;1.02;;
44426;SDS011;30133;47.866;-4.222;2022-10-26T06:44:07;5.70;;;1.23;;
44426;SDS011;30133;47.866;-4.222;2022-10-26T06:46:47;6.82;;;1.13;;
44426;SDS011;30133;47.866;-4.222;2022-10-26T06:52:16;4.55;;;1.00;;
44426;SDS011;30133;47.866;-4.222;2022-10-26T06:54:54;6.25;;;1.52;;
44426;SDS011;30133;47.866;-4.222;2022-10-26T06:57:35;4.57;;;1.40;;
44426;SDS011;30133;47.866;-4.222;2022-10-26T07:00:13;4.63;;;1.13;;
44426;SDS011;30133;47.866;-4.222;2022-10-26T07:02:49;4.95;;;1.65;;
44426;SDS011;30133;47.866;-4.222;2022-10-26T07:05:16;5.60;;;0.75;;
44426;SDS011;30133;47.866;-4.222;2022-10-26T07:07:46;8.63;;;1.30;;
44426;SDS011;30133;47.866;-4.222;2022-10-26T07:10:13;2.58;;;1.30;;
44426;SDS011;30133;47.866;-4.222;2022-10-26T07:12:40;1.48;;;0.80;;
44426;SDS011;30133;47.866;-4.222;2022-10-26T07:15:06;3.33;;;1.17;;
44426;SDS011;30133;47.866;-4.222;2022-10-26T07:17:42;9.65;;;1.90;;
44426;SDS011;30133;47.866;-4.222;2022-10-26T07:20:10;3.13;;;1.27;;
44426;SDS011;30133;47.866;-4.222;2022-10-26T07:22:37;4.82;;;1.55;;
44426;SDS011;30133;47.866;-4.222;2022-10-26T07:25:04;3.75;;;1.13;;
44426;SDS011;30133;47.866;-4.222;2022-10-26T07:27:32;3.63;;;1.20;;
44426;SDS011;30133;47.866;-4.222;2022-10-26T07:29:58;5.63;;;1.13;;
44426;SDS011;30133;47.866;-4.222;2022-10-26T07:32:24;2.63;;;1.27;;
44426;SDS011;30133;47.866;-4.222;2022-10-26T07:34:51;3.58;;;0.88;;
44426;SDS011;30133;47.866;-4.222;2022-10-26T07:37:18;3.60;;;1.00;;
44426;SDS011;30133;47.866;-4.222;2022-10-26T07:39:44;4.60;;;1.58;;
44426;SDS011;30133;47.866;-4.222;2022-10-26T07:42:10;5.25;;;1.48;;
44426;SDS011;30133;47.866;-4.222;2022-10-26T07:44:39;3.47;;;1.10;;
44426;SDS011;30133;47.866;-4.222;2022-10-26T07:47:05;7.30;;;1.25;;
44426;SDS011;30133;47.866;-4.222;2022-10-26T07:49:31;2.25;;;1.10;;
44426;SDS011;30133;47.866;-4.222;2022-10-26T07:51:57;1.90;;;0.80;;
44426;SDS011;30133;47.866;-4.222;2022-10-26T07:54:23;3.17;;;0.80;;
44426;SDS011;30133;47.866;-4.222;2022-10-26T07:56:49;5.25;;;1.17;;
44426;SDS011;30133;47.866;-4.222;2022-10-26T07:59:15;4.18;;;1.05;;
44426;SDS011;30133;47.866;-4.222;2022-10-26T08:01:44;5.40;;;1.17;;
44426;SDS011;30133;47.866;-4.222;2022-10-26T08:04:11;2.67;;;1.20;;
44426;SDS011;30133;47.866;-4.222;2022-10-26T08:06:36;2.53;;;1.08;;
44426;SDS011;30133;47.866;-4.222;2022-10-26T08:09:03;10.43;;;1.30;;
44426;SDS011;30133;47.866;-4.222;2022-10-26T08:11:30;7.28;;;1.60;;
44426;SDS011;30133;47.866;-4.222;2022-10-26T08:13:57;3.78;;;1.10;;
44426;SDS011;30133;47.866;-4.222;2022-10-26T08:16:23;4.60;;;1.10;;
44426;SDS011;30133;47.866;-4.222;2022-10-26T08:18:50;5.25;;;1.35;;
44426;SDS011;30133;47.866;-4.222;2022-10-26T08:21:17;6.53;;;1.30;;
44426;SDS011;30133;47.866;-4.222;2022-10-26T08:23:44;6.22;;;1.88;;
44426;SDS011;30133;47.866;-4.222;2022-10-26T08:26:11;6.15;;;1.83;;
44426;SDS011;30133;47.866;-4.222;2022-10-26T08:28:37;19.75;;;3.70;;
44426;SDS011;30133;47.866;-4.222;2022-10-26T08:31:05;22.92;;;3.60;;
44426;SDS011;30133;47.866;-4.222;2022-10-26T08:33:32;11.68;;;3.17;;
44426;SDS011;30133;47.866;-4.222;2022-10-26T08:35:59;9.13;;;2.85;;
44426;SDS011;30133;47.866;-4.222;2022-10-26T08:38:30;12.63;;;3.80;;
44426;SDS011;30133;47.866;-4.222;2022-10-26T08:40:57;12.18;;;3.15;;
44426;SDS011;30133;47.866;-4.222;2022-10-26T08:48:34;12.98;;;2.22;;
44426;SDS011;30133;47.866;-4.222;2022-10-26T08:51:27;13.15;;;2.63;;
44426;SDS011;30133;47.866;-4.222;2022-10-26T08:54:01;15.05;;;4.15;;
44426;SDS011;30133;47.866;-4.222;2022-10-26T08:59:55;22.10;;;3.35;;
44426;SDS011;30133;47.866;-4.222;2022-10-26T09:02:29;10.93;;;2.55;;
44426;SDS011;30133;47.866;-4.222;2022-10-26T09:04:56;22.00;;;2.97;;
44426;SDS011;30133;47.866;-4.222;2022-10-26T09:13:02;15.52;;;3.42;;
44426;SDS011;30133;47.866;-4.222;2022-10-26T09:19:20;9.45;;;2.38;;
44426;SDS011;30133;47.866;-4.222;2022-10-26T09:24:46;11.73;;;2.80;;
44426;SDS011;30133;47.866;-4.222;2022-10-26T09:29:56;13.25;;;2.10;;
44426;SDS011;30133;47.866;-4.222;2022-10-26T09:32:28;13.32;;;2.97;;
44426;SDS011;30133;47.866;-4.222;2022-10-26T09:35:28;17.20;;;2.33;;
44426;SDS011;30133;47.866;-4.222;2022-10-26T09:39:00;10.20;;;3.03;;
44426;SDS011;30133;47.866;-4.222;2022-10-26T09:49:49;14.75;;;2.45;;
44426;SDS011;30133;47.866;-4.222;2022-10-26T09:52:17;7.00;;;1.90;;
44426;SDS011;30133;47.866;-4.222;2022-10-26T09:54:45;8.10;;;2.13;;
44426;SDS011;30133;47.866;-4.222;2022-10-26T09:57:15;10.65;;;2.30;;
44426;SDS011;30133;47.866;-4.222;2022-10-26T09:59:44;9.65;;;1.98;;
44426;SDS011;30133;47.866;-4.222;2022-10-26T10:02:31;8.85;;;1.60;;
44426;SDS011;30133;47.866;-4.222;2022-10-26T10:08:18;8.45;;;2.20;;
44426;SDS011;30133;47.866;-4.222;2022-10-26T10:13:24;11.40;;;2.50;;
44426;SDS011;30133;47.866;-4.222;2022-10-26T10:15:57;13.23;;;2.53;;
44426;SDS011;30133;47.866;-4.222;2022-10-26T10:18:38;22.30;;;2.50;;
44426;SDS011;30133;47.866;-4.222;2022-10-26T10:21:06;7.25;;;2.10;;
44426;SDS011;30133;47.866;-4.222;2022-10-26T10:23:34;8.13;;;2.33;;
44426;SDS011;30133;47.866;-4.222;2022-10-26T10:26:12;12.20;;;2.58;;
44426;SDS011;30133;47.866;-4.222;2022-10-26T10:28:40;8.82;;;2.00;;
44426;SDS011;30133;47.866;-4.222;2022-10-26T10:31:26;9.88;;;3.15;;
44426;SDS011;30133;47.866;-4.222;2022-10-26T10:33:57;14.85;;;2.15;;
44426;SDS011;30133;47.866;-4.222;2022-10-26T10:36:25;15.82;;;2.50;;
44426;SDS011;30133;47.866;-4.222;2022-10-26T10:38:56;12.85;;;2.53;;
44426;SDS011;30133;47.866;-4.222;2022-10-26T10:41:32;8.10;;;2.65;;
44426;SDS011;30133;47.866;-4.222;2022-10-26T10:44:04;11.23;;;1.92;;
44426;SDS011;30133;47.866;-4.222;2022-10-26T10:46:42;10.85;;;2.50;;
44426;SDS011;30133;47.866;-4.222;2022-10-26T10:49:17;11.07;;;2.28;;
44426;SDS011;30133;47.866;-4.222;2022-10-26T10:51:48;7.00;;;2.75;;
44426;SDS011;30133;47.866;-4.222;2022-10-26T10:54:22;7.10;;;1.50;;
44426;SDS011;30133;47.866;-4.222;2022-10-26T11:00:17;7.20;;;2.47;;
44426;SDS011;30133;47.866;-4.222;2022-10-26T11:05:52;5.78;;;1.67;;
44426;SDS011;30133;47.866;-4.222;2022-10-26T11:08:43;12.30;;;2.10;;
44426;SDS011;30133;47.866;-4.222;2022-10-26T11:11:21;6.32;;;2.13;;
44426;SDS011;30133;47.866;-4.222;2022-10-26T11:13:59;7.57;;;2.30;;
44426;SDS011;30133;47.866;-4.222;2022-10-26T11:17:04;5.10;;;1.60;;
44426;SDS011;30133;47.866;-4.222;2022-10-26T11:20:21;7.15;;;2.17;;
44426;SDS011;30133;47.866;-4.222;2022-10-26T11:25:29;18.23;;;2.97;;
44426;SDS011;30133;47.866;-4.222;2022-10-26T11:28:34;10.38;;;1.95;;
44426;SDS011;30133;47.866;-4.222;2022-10-26T11:31:22;7.25;;;2.03;;
44426;SDS011;30133;47.866;-4.222;2022-10-26T11:34:20;5.50;;;1.77;;
44426;SDS011;30133;47.866;-4.222;2022-10-26T11:36:52;7.20;;;2.15;;
44426;SDS011;30133;47.866;-4.222;2022-10-26T11:39:41;8.20;;;1.83;;
44426;SDS011;30133;47.866;-4.222;2022-10-26T11:42:22;6.63;;;1.65;;
44426;SDS011;30133;47.866;-4.222;2022-10-26T11:50:52;5.93;;;2.15;;
44426;SDS011;30133;47.866;-4.222;2022-10-26T11:53:23;7.82;;;1.80;;
44426;SDS011;30133;47.866;-4.222;2022-10-26T11:56:12;8.07;;;1.33;;
44426;SDS011;30133;47.866;-4.222;2022-10-26T11:59:01;8.20;;;1.52;;
44426;SDS011;30133;47.866;-4.222;2022-10-26T12:01:30;8.07;;;2.00;;
44426;SDS011;30133;47.866;-4.222;2022-10-26T12:03:59;9.10;;;1.63;;
44426;SDS011;30133;47.866;-4.222;2022-10-26T12:06:29;9.43;;;1.42;;
44426;SDS011;30133;47.866;-4.222;2022-10-26T12:09:07;8.30;;;2.25;;
44426;SDS011;30133;47.866;-4.222;2022-10-26T12:11:43;6.32;;;2.58;;
44426;SDS011;30133;47.866;-4.222;2022-10-26T12:17:10;2.58;;;1.45;;
44426;SDS011;30133;47.866;-4.222;2022-10-26T12:19:45;6.72;;;1.65;;
44426;SDS011;30133;47.866;-4.222;2022-10-26T12:22:26;6.40;;;2.13;;
44426;SDS011;30133;47.866;-4.222;2022-10-26T12:25:05;4.88;;;1.52;;
44426;SDS011;30133;47.866;-4.222;2022-10-26T12:32:53;7.22;;;1.95;;
44426;SDS011;30133;47.866;-4.222;2022-10-26T12:35:29;7.13;;;1.83;;
44426;SDS011;30133;47.866;-4.222;2022-10-26T12:41:06;7.35;;;1.90;;
44426;SDS011;30133;47.866;-4.222;2022-10-26T12:43:44;5.38;;;1.92;;
44426;SDS011;30133;47.866;-4.222;2022-10-26T12:57:05;7.50;;;2.22;;
44426;SDS011;30133;47.866;-4.222;2022-10-26T12:59:53;6.85;;;1.88;;
44426;SDS011;30133;47.866;-4.222;2022-10-26T13:08:49;4.03;;;1.85;;
44426;SDS011;30133;47.866;-4.222;2022-10-26T13:11:20;7.45;;;1.50;;
44426;SDS011;30133;47.866;-4.222;2022-10-26T13:14:01;6.05;;;1.95;;
44426;SDS011;30133;47.866;-4.222;2022-10-26T13:16:40;8.13;;;1.88;;
44426;SDS011;30133;47.866;-4.222;2022-10-26T13:19:23;5.13;;;1.88;;
44426;SDS011;30133;47.866;-4.222;2022-10-26T13:21:57;6.85;;;2.08;;
44426;SDS011;30133;47.866;-4.222;2022-10-26T13:24:26;6.43;;;1.50;;
44426;SDS011;30133;47.866;-4.222;2022-10-26T13:27:42;6.60;;;1.48;;
44426;SDS011;30133;47.866;-4.222;2022-10-26T13:32:27;5.35;;;1.40;;
44426;SDS011;30133;47.866;-4.222;2022-10-26T13:35:18;4.97;;;1.73;;
44426;SDS011;30133;47.866;-4.222;2022-10-26T13:37:47;5.40;;;1.52;;
44426;SDS011;30133;47.866;-4.222;2022-10-26T13:40:18;3.97;;;1.70;;
44426;SDS011;30133;47.866;-4.222;2022-10-26T13:42:53;4.90;;;1.80;;
44426;SDS011;30133;47.866;-4.222;2022-10-26T13:45:28;8.45;;;1.90;;
44426;SDS011;30133;47.866;-4.222;2022-10-26T13:48:11;3.85;;;1.00;;
44426;SDS011;30133;47.866;-4.222;2022-10-26T13:51:11;6.57;;;1.60;;
44426;SDS011;30133;47.866;-4.222;2022-10-26T13:54:22;6.47;;;1.95;;
44426;SDS011;30133;47.866;-4.222;2022-10-26T14:00:00;9.13;;;1.80;;
44426;SDS011;30133;47.866;-4.222;2022-10-26T14:02:46;6.05;;;1.67;;
44426;SDS011;30133;47.866;-4.222;2022-10-26T14:05:14;5.15;;;1.15;;
44426;SDS011;30133;47.866;-4.222;2022-10-26T14:07:55;6.60;;;1.80;;
44426;SDS011;30133;47.866;-4.222;2022-10-26T14:10:36;6.35;;;1.52;;
44426;SDS011;30133;47.866;-4.222;2022-10-26T14:13:07;9.85;;;1.80;;
44426;SDS011;30133;47.866;-4.222;2022-10-26T14:15:40;6.22;;;1.58;;
44426;SDS011;30133;47.866;-4.222;2022-10-26T14:18:28;8.75;;;2.20;;
44426;SDS011;30133;47.866;-4.222;2022-10-26T14:21:19;5.80;;;1.52;;
44426;SDS011;30133;47.866;-4.222;2022-10-26T14:23:48;2.20;;;1.15;;
44426;SDS011;30133;47.866;-4.222;2022-10-26T14:29:12;3.25;;;1.23;;
44426;SDS011;30133;47.866;-4.222;2022-10-26T14:31:45;4.63;;;1.60;;
44426;SDS011;30133;47.866;-4.222;2022-10-26T14:34:12;4.80;;;1.67;;
44426;SDS011;30133;47.866;-4.222;2022-10-26T14:36:43;5.47;;;1.67;;
44426;SDS011;30133;47.866;-4.222;2022-10-26T14:41:42;5.78;;;1.63;;
44426;SDS011;30133;47.866;-4.222;2022-10-26T14:44:13;8.15;;;2.20;;
44426;SDS011;30133;47.866;-4.222;2022-10-26T14:46:45;4.40;;;1.63;;
44426;SDS011;30133;47.866;-4.222;2022-10-26T14:49:26;5.05;;;1.63;;
44426;SDS011;30133;47.866;-4.222;2022-10-26T14:51:56;6.30;;;1.42;;
44426;SDS011;30133;47.866;-4.222;2022-10-26T14:54:27;4.90;;;1.40;;
44426;SDS011;30133;47.866;-4.222;2022-10-26T14:56:57;8.70;;;1.77;;
44426;SDS011;30133;47.866;-4.222;2022-10-26T14:59:32;8.25;;;1.58;;
44426;SDS011;30133;47.866;-4.222;2022-10-26T15:04:40;2.97;;;1.30;;
44426;SDS011;30133;47.866;-4.222;2022-10-26T15:07:22;4.45;;;1.40;;
44426;SDS011;30133;47.866;-4.222;2022-10-26T15:09:51;3.33;;;1.42;;
44426;SDS011;30133;47.866;-4.222;2022-10-26T15:15:07;4.47;;;1.38;;
44426;SDS011;30133;47.866;-4.222;2022-10-26T15:17:50;6.15;;;1.48;;
44426;SDS011;30133;47.866;-4.222;2022-10-26T15:20:20;4.82;;;1.55;;
44426;SDS011;30133;47.866;-4.222;2022-10-26T15:22:56;6.70;;;1.80;;
44426;SDS011;30133;47.866;-4.222;2022-10-26T15:25:29;6.63;;;1.48;;
44426;SDS011;30133;47.866;-4.222;2022-10-26T15:31:03;7.20;;;1.58;;
44426;SDS011;30133;47.866;-4.222;2022-10-26T15:36:21;10.63;;;1.63;;
44426;SDS011;30133;47.866;-4.222;2022-10-26T15:38:50;6.75;;;1.55;;
44426;SDS011;30133;47.866;-4.222;2022-10-26T15:41:26;6.40;;;1.48;;
44426;SDS011;30133;47.866;-4.222;2022-10-26T15:44:01;6.13;;;1.27;;
44426;SDS011;30133;47.866;-4.222;2022-10-26T15:46:31;5.25;;;1.42;;
44426;SDS011;30133;47.866;-4.222;2022-10-26T15:49:03;7.38;;;1.60;;
44426;SDS011;30133;47.866;-4.222;2022-10-26T15:51:32;3.80;;;1.45;;
44426;SDS011;30133;47.866;-4.222;2022-10-26T15:54:01;3.33;;;1.33;;
44426;SDS011;30133;47.866;-4.222;2022-10-26T15:56:28;4.43;;;1.27;;
44426;SDS011;30133;47.866;-4.222;2022-10-26T15:58:56;4.93;;;1.30;;
44426;SDS011;30133;47.866;-4.222;2022-10-26T16:01:24;5.55;;;1.65;;
44426;SDS011;30133;47.866;-4.222;2022-10-26T16:03:52;5.90;;;1.80;;
44426;SDS011;30133;47.866;-4.222;2022-10-26T16:06:28;6.13;;;1.63;;
44426;SDS011;30133;47.866;-4.222;2022-10-26T16:09:03;5.70;;;1.92;;
44426;SDS011;30133;47.866;-4.222;2022-10-26T16:11:33;6.93;;;2.13;;
44426;SDS011;30133;47.866;-4.222;2022-10-26T16:14:00;4.03;;;0.90;;
44426;SDS011;30133;47.866;-4.222;2022-10-26T16:16:27;6.13;;;1.48;;
44426;SDS011;30133;47.866;-4.222;2022-10-26T16:18:54;5.40;;;1.77;;
44426;SDS011;30133;47.866;-4.222;2022-10-26T16:21:22;6.32;;;1.63;;
44426;SDS011;30133;47.866;-4.222;2022-10-26T16:23:53;8.20;;;1.45;;
44426;SDS011;30133;47.866;-4.222;2022-10-26T16:26:21;4.93;;;1.58;;
44426;SDS011;30133;47.866;-4.222;2022-10-26T16:28:48;5.20;;;1.40;;
44426;SDS011;30133;47.866;-4.222;2022-10-26T16:31:16;4.25;;;1.48;;
44426;SDS011;30133;47.866;-4.222;2022-10-26T16:33:44;6.35;;;1.83;;
44426;SDS011;30133;47.866;-4.222;2022-10-26T16:36:12;5.72;;;1.40;;
44426;SDS011;30133;47.866;-4.222;2022-10-26T16:38:41;4.40;;;1.52;;
44426;SDS011;30133;47.866;-4.222;2022-10-26T16:41:08;5.35;;;1.65;;
44426;SDS011;30133;47.866;-4.222;2022-10-26T16:43:37;3.63;;;0.90;;
44426;SDS011;30133;47.866;-4.222;2022-10-26T16:46:16;5.82;;;1.13;;
44426;SDS011;30133;47.866;-4.222;2022-10-26T16:48:45;5.53;;;1.55;;
44426;SDS011;30133;47.866;-4.222;2022-10-26T16:53:49;7.20;;;2.03;;
44426;SDS011;30133;47.866;-4.222;2022-10-26T16:56:20;3.42;;;1.30;;
44426;SDS011;30133;47.866;-4.222;2022-10-26T16:58:50;3.67;;;1.20;;
44426;SDS011;30133;47.866;-4.222;2022-10-26T17:01:17;4.82;;;1.15;;
44426;SDS011;30133;47.866;-4.222;2022-10-26T17:03:46;4.38;;;1.55;;
44426;SDS011;30133;47.866;-4.222;2022-10-26T17:06:15;3.53;;;1.27;;
44426;SDS011;30133;47.866;-4.222;2022-10-26T17:08:46;3.83;;;1.08;;
44426;SDS011;30133;47.866;-4.222;2022-10-26T17:11:13;3.45;;;1.27;;
44426;SDS011;30133;47.866;-4.222;2022-10-26T17:13:44;4.32;;;1.80;;
44426;SDS011;30133;47.866;-4.222;2022-10-26T17:16:13;4.03;;;1.58;;
44426;SDS011;30133;47.866;-4.222;2022-10-26T17:18:44;2.97;;;1.05;;
44426;SDS011;30133;47.866;-4.222;2022-10-26T17:21:15;5.18;;;1.65;;
44426;SDS011;30133;47.866;-4.222;2022-10-26T17:23:46;5.93;;;1.48;;
44426;SDS011;30133;47.866;-4.222;2022-10-26T17:26:14;2.47;;;1.08;;
44426;SDS011;30133;47.866;-4.222;2022-10-26T17:28:40;4.53;;;1.23;;
44426;SDS011;30133;47.866;-4.222;2022-10-26T17:31:11;4.45;;;1.63;;
44426;SDS011;30133;47.866;-4.222;2022-10-26T17:33:40;5.30;;;1.35;;
44426;SDS011;30133;47.866;-4.222;2022-10-26T17:36:09;6.07;;;1.80;;
44426;SDS011;30133;47.866;-4.222;2022-10-26T17:38:39;6.00;;;1.48;;
44426;SDS011;30133;47.866;-4.222;2022-10-26T17:41:08;5.40;;;1.38;;
44426;SDS011;30133;47.866;-4.222;2022-10-26T17:43:38;3.55;;;1.58;;